createdAt,value
2022-08-26T00:01:55.907Z,2.13
2022-08-26T00:04:25.585Z,2.40
2022-08-26T00:06:55.562Z,2.38
2022-08-26T00:09:24.789Z,2.58
2022-08-26T00:11:54.052Z,2.92
2022-08-26T00:14:27.087Z,2.83
2022-08-26T00:16:58.237Z,5.10
2022-08-26T00:19:26.213Z,4.57
2022-08-26T00:21:53.754Z,4.82
2022-08-26T00:24:21.933Z,4.68
2022-08-26T00:26:50.324Z,5.20
2022-08-26T00:29:19.188Z,4.78
2022-08-26T00:31:48.934Z,4.35
2022-08-26T00:34:19.589Z,4.30
2022-08-26T00:36:51.729Z,4.35
2022-08-26T00:39:20.850Z,4.78
2022-08-26T00:41:48.533Z,4.90
2022-08-26T00:44:16.999Z,5.85
2022-08-26T00:46:50.348Z,5.32
2022-08-26T00:49:25.035Z,5.47
2022-08-26T00:51:58.819Z,5.50
2022-08-26T00:54:33.486Z,5.80
2022-08-26T00:57:08.526Z,5.68
2022-08-26T00:59:46.625Z,5.10
2022-08-26T01:02:21.193Z,5.13
2022-08-26T01:04:56.481Z,5.20
2022-08-26T01:07:27.573Z,6.38
2022-08-26T01:10:03.892Z,6.60
2022-08-26T01:12:36.858Z,6.50
2022-08-26T01:15:10.196Z,6.85
2022-08-26T01:17:39.768Z,6.55
2022-08-26T01:20:27.152Z,6.00
2022-08-26T01:23:04.174Z,5.75
2022-08-26T01:25:33.899Z,5.78
2022-08-26T01:28:06.803Z,5.50
2022-08-26T01:30:35.798Z,5.35
2022-08-26T01:33:06.955Z,5.95
2022-08-26T01:35:34.568Z,5.70
2022-08-26T01:38:02.499Z,7.10
2022-08-26T01:40:34.037Z,7.60
2022-08-26T01:43:02.629Z,6.47
2022-08-26T01:45:33.292Z,6.43
2022-08-26T01:48:03.855Z,5.97
2022-08-26T01:50:34.453Z,6.95
2022-08-26T01:53:06.275Z,5.10
2022-08-26T01:55:34.620Z,6.47
2022-08-26T01:58:06.582Z,6.22
2022-08-26T02:00:35.500Z,6.47
2022-08-26T02:03:17.811Z,6.75
2022-08-26T02:05:51.390Z,7.10
2022-08-26T02:08:25.509Z,7.40
2022-08-26T02:10:54.741Z,7.88
2022-08-26T02:13:23.572Z,8.88
2022-08-26T02:15:53.556Z,9.65
2022-08-26T02:18:22.856Z,9.80
2022-08-26T02:20:52.918Z,10.70
2022-08-26T02:23:20.849Z,9.65
2022-08-26T02:26:04.276Z,9.25
2022-08-26T02:28:37.872Z,8.00
2022-08-26T02:31:05.689Z,7.65
2022-08-26T02:33:35.553Z,7.85
2022-08-26T02:36:06.771Z,7.40
2022-08-26T02:38:38.856Z,6.93
2022-08-26T02:41:08.056Z,6.78
2022-08-26T02:43:36.282Z,7.60
2022-08-26T02:46:03.825Z,7.15
2022-08-26T02:48:32.246Z,6.95
2022-08-26T02:51:01.303Z,7.80
2022-08-26T02:53:31.747Z,7.80
2022-08-26T02:55:59.893Z,7.22
2022-08-26T02:58:27.768Z,7.70
2022-08-26T03:00:55.286Z,7.63
2022-08-26T03:03:23.734Z,7.93
2022-08-26T03:05:52.546Z,8.35
2022-08-26T03:08:20.354Z,8.20
2022-08-26T03:10:48.112Z,8.27
2022-08-26T03:13:17.267Z,8.15
2022-08-26T03:15:45.898Z,8.40
2022-08-26T03:18:15.444Z,8.05
2022-08-26T03:20:42.932Z,8.68
2022-08-26T03:23:12.169Z,8.43
2022-08-26T03:25:40.213Z,8.73
2022-08-26T03:28:07.794Z,8.13
2022-08-26T03:30:45.237Z,7.82
2022-08-26T03:33:14.052Z,7.43
2022-08-26T03:35:43.939Z,7.65
2022-08-26T03:38:11.927Z,7.45
2022-08-26T03:40:40.236Z,7.80
2022-08-26T03:43:10.193Z,7.57
2022-08-26T03:45:38.824Z,7.57
2022-08-26T03:48:06.728Z,7.90
2022-08-26T03:50:35.832Z,7.47
2022-08-26T03:53:04.655Z,7.70
2022-08-26T03:55:34.904Z,7.65
2022-08-26T03:58:02.647Z,6.85
2022-08-26T04:00:30.891Z,6.78
2022-08-26T04:02:58.437Z,6.80
2022-08-26T04:05:25.999Z,7.03
2022-08-26T04:07:56.059Z,6.60
2022-08-26T04:10:28.912Z,6.45
2022-08-26T04:12:58.642Z,6.35
2022-08-26T04:15:27.341Z,6.32
2022-08-26T04:17:55.927Z,6.25
2022-08-26T04:20:25.575Z,7.10
2022-08-26T04:22:53.223Z,6.35
2022-08-26T04:25:21.477Z,6.45
2022-08-26T04:27:49.102Z,5.93
2022-08-26T04:30:18.093Z,6.80
2022-08-26T04:32:45.716Z,7.18
2022-08-26T04:35:13.310Z,6.97
2022-08-26T04:37:43.056Z,6.32
2022-08-26T04:40:11.393Z,6.30
2022-08-26T04:42:39.045Z,6.25
2022-08-26T04:45:10.029Z,6.55
2022-08-26T04:47:38.197Z,6.07
2022-08-26T04:50:07.519Z,6.55
2022-08-26T04:52:36.451Z,6.65
2022-08-26T04:55:06.529Z,6.75
2022-08-26T04:57:36.396Z,6.32
2022-08-26T05:00:08.913Z,6.32
2022-08-26T05:02:36.597Z,6.60
2022-08-26T05:05:07.463Z,6.82
2022-08-26T05:07:35.966Z,6.80
2022-08-26T05:10:05.314Z,6.18
2022-08-26T05:12:38.854Z,8.00
2022-08-26T05:15:08.457Z,6.78
2022-08-26T05:17:36.686Z,7.25
2022-08-26T05:20:05.135Z,7.57
2022-08-26T05:22:36.526Z,7.65
2022-08-26T05:25:04.816Z,7.85
2022-08-26T05:27:32.988Z,7.32
2022-08-26T05:30:15.102Z,8.07
2022-08-26T05:32:42.867Z,7.57
2022-08-26T05:35:11.264Z,7.38
2022-08-26T05:37:39.344Z,8.00
2022-08-26T05:40:08.182Z,8.00
2022-08-26T05:42:38.678Z,7.90
2022-08-26T05:45:07.655Z,7.15
2022-08-26T05:47:35.296Z,6.82
2022-08-26T05:50:05.706Z,7.63
2022-08-26T05:52:34.194Z,7.38
2022-08-26T05:55:01.787Z,7.10
2022-08-26T05:57:35.370Z,6.95
2022-08-26T06:00:05.675Z,7.20
2022-08-26T06:02:35.459Z,7.35
2022-08-26T06:05:05.147Z,7.47
2022-08-26T06:07:53.827Z,7.57
2022-08-26T06:10:32.087Z,6.90
2022-08-26T06:13:09.327Z,6.47
2022-08-26T06:15:45.746Z,7.05
2022-08-26T06:18:17.537Z,6.20
2022-08-26T06:20:56.974Z,6.55
2022-08-26T06:23:47.109Z,5.90
2022-08-26T06:26:17.211Z,6.30
2022-08-26T06:28:45.817Z,7.25
2022-08-26T06:31:14.936Z,6.07
2022-08-26T06:33:46.472Z,6.38
2022-08-26T06:36:23.776Z,7.20
2022-08-26T06:38:54.165Z,6.43
2022-08-26T06:41:23.228Z,6.82
2022-08-26T06:43:51.367Z,6.50
2022-08-26T06:46:23.003Z,5.75
2022-08-26T06:48:58.582Z,6.50
2022-08-26T06:51:32.455Z,6.30
2022-08-26T06:54:06.073Z,6.00
2022-08-26T06:56:37.961Z,6.20
2022-08-26T06:59:07.796Z,6.00
2022-08-26T07:01:42.966Z,6.38
2022-08-26T07:04:13.358Z,6.15
2022-08-26T07:06:49.685Z,5.70
2022-08-26T07:09:30.942Z,5.93
2022-08-26T07:12:33.459Z,5.38
2022-08-26T07:15:14.135Z,5.72
2022-08-26T07:17:47.119Z,5.88
2022-08-26T07:20:17.657Z,5.72
2022-08-26T07:22:48.346Z,5.30
2022-08-26T07:25:19.319Z,5.90
2022-08-26T07:35:55.641Z,5.63
2022-08-26T07:38:23.498Z,6.15
2022-08-26T07:40:52.275Z,5.40
2022-08-26T07:43:21.687Z,6.10
2022-08-26T07:45:51.620Z,6.30
2022-08-26T07:48:21.373Z,6.03
2022-08-26T07:50:50.544Z,5.68
2022-08-26T07:53:19.427Z,5.90
2022-08-26T07:55:47.963Z,6.22
2022-08-26T07:58:20.961Z,5.47
2022-08-26T08:00:49.149Z,5.53
2022-08-26T08:03:19.946Z,6.60
2022-08-26T08:05:49.178Z,5.93
2022-08-26T08:08:26.699Z,5.93
2022-08-26T08:10:56.460Z,6.25
2022-08-26T08:13:25.750Z,6.03
2022-08-26T08:15:55.767Z,5.97
2022-08-26T08:18:43.150Z,6.30
2022-08-26T08:21:21.730Z,6.00
2022-08-26T08:23:58.507Z,6.13
2022-08-26T08:26:56.591Z,6.50
2022-08-26T08:29:30.331Z,6.13
2022-08-26T08:31:58.810Z,6.30
2022-08-26T08:34:31.659Z,6.57
2022-08-26T08:37:00.368Z,6.32
2022-08-26T08:39:28.027Z,6.35
2022-08-26T08:42:33.677Z,6.22
2022-08-26T08:45:07.859Z,6.10
2022-08-26T08:47:54.112Z,6.30
2022-08-26T08:50:54.246Z,6.18
2022-08-26T08:53:30.623Z,5.97
2022-08-26T08:56:14.575Z,6.20
2022-08-26T08:59:06.597Z,6.03
2022-08-26T09:01:57.242Z,5.53
2022-08-26T09:04:45.605Z,5.75
2022-08-26T09:07:19.422Z,5.88
2022-08-26T09:09:59.469Z,5.50
2022-08-26T09:12:31.313Z,5.82
2022-08-26T09:15:08.126Z,5.50
2022-08-26T09:18:13.299Z,5.80
2022-08-26T09:21:03.954Z,5.03
2022-08-26T09:23:35.809Z,5.78
2022-08-26T09:26:28.671Z,5.13
2022-08-26T09:29:05.214Z,5.13
2022-08-26T09:31:39.016Z,5.35
2022-08-26T09:34:21.868Z,5.35
2022-08-26T09:36:55.273Z,5.88
2022-08-26T09:39:28.814Z,5.07
2022-08-26T09:42:09.576Z,5.00
2022-08-26T09:45:10.830Z,5.22
2022-08-26T09:47:48.999Z,4.63
2022-08-26T09:50:32.660Z,5.00
2022-08-26T09:53:13.409Z,5.00
2022-08-26T09:55:44.607Z,4.72
2022-08-26T09:58:35.134Z,4.47
2022-08-26T10:01:08.571Z,4.97
2022-08-26T10:03:40.157Z,13.23
2022-08-26T10:06:31.070Z,5.25
2022-08-26T10:09:01.402Z,5.40
2022-08-26T10:11:47.750Z,4.75
2022-08-26T10:14:34.785Z,5.90
2022-08-26T10:17:07.466Z,4.88
2022-08-26T10:19:56.924Z,5.20
2022-08-26T10:22:45.911Z,5.07
2022-08-26T10:25:22.407Z,4.80
2022-08-26T10:28:12.191Z,5.32
2022-08-26T10:31:00.987Z,5.20
2022-08-26T10:33:29.924Z,5.25
2022-08-26T10:36:01.545Z,5.38
2022-08-26T10:38:40.422Z,5.97
2022-08-26T10:41:20.867Z,5.45
2022-08-26T10:44:00.630Z,5.13
2022-08-26T10:46:45.781Z,4.70
2022-08-26T10:49:16.535Z,5.50
2022-08-26T10:52:17.038Z,5.82
2022-08-26T10:54:53.715Z,6.05
2022-08-26T10:57:55.561Z,5.43
2022-08-26T11:00:48.488Z,5.68
2022-08-26T11:03:39.365Z,5.57
2022-08-26T11:06:19.006Z,5.72
2022-08-26T11:08:52.156Z,6.00
2022-08-26T11:11:42.084Z,5.90
2022-08-26T11:14:28.693Z,6.10
2022-08-26T11:16:58.825Z,5.93
2022-08-26T11:19:59.678Z,5.70
2022-08-26T11:22:31.793Z,5.80
2022-08-26T11:24:59.592Z,6.30
2022-08-26T11:27:27.293Z,5.65
2022-08-26T11:30:02.065Z,6.40
2022-08-26T11:32:41.740Z,6.82
2022-08-26T11:35:19.722Z,6.70
2022-08-26T11:37:54.472Z,6.63
2022-08-26T11:40:29.716Z,6.45
2022-08-26T11:43:08.211Z,6.53
2022-08-26T11:45:48.773Z,6.75
2022-08-26T11:48:31.258Z,6.20
2022-08-26T11:51:21.025Z,4.97
2022-08-26T11:53:49.806Z,4.85
2022-08-26T11:56:53.456Z,5.68
2022-08-26T12:02:01.918Z,5.15
2022-08-26T12:04:34.703Z,5.10
2022-08-26T12:07:03.127Z,5.03
2022-08-26T12:09:37.176Z,4.90
2022-08-26T12:12:16.494Z,5.22
2022-08-26T12:14:44.930Z,5.35
2022-08-26T12:17:18.419Z,5.10
2022-08-26T12:19:46.946Z,4.43
2022-08-26T12:22:24.721Z,4.85
2022-08-26T12:25:00.740Z,4.20
2022-08-26T12:27:45.656Z,4.88
2022-08-26T12:30:26.189Z,4.85
2022-08-26T12:33:22.421Z,4.05
2022-08-26T12:35:56.511Z,3.85
2022-08-26T12:38:25.728Z,3.88
2022-08-26T12:40:53.441Z,3.63
2022-08-26T12:43:44.133Z,3.50
2022-08-26T12:46:16.529Z,3.40
2022-08-26T12:48:48.876Z,3.33
2022-08-26T12:51:23.081Z,3.63
2022-08-26T12:53:50.659Z,3.70
2022-08-26T12:56:25.447Z,3.58
2022-08-26T12:59:26.154Z,3.90
2022-08-26T13:01:54.721Z,3.47
2022-08-26T13:04:35.376Z,4.07
2022-08-26T13:07:21.395Z,3.70
2022-08-26T13:09:50.820Z,3.55
2022-08-26T13:12:31.785Z,4.28
2022-08-26T13:15:05.214Z,3.80
2022-08-26T13:17:35.100Z,3.80
2022-08-26T13:20:04.334Z,4.25
2022-08-26T13:22:32.586Z,4.50
2022-08-26T13:25:00.091Z,4.25
2022-08-26T13:27:27.814Z,4.18
2022-08-26T13:29:58.093Z,3.88
2022-08-26T13:32:27.753Z,3.50
2022-08-26T13:34:56.792Z,3.63
2022-08-26T13:37:35.094Z,3.42
2022-08-26T13:40:05.944Z,3.50
2022-08-26T13:42:34.518Z,3.40
2022-08-26T13:45:02.492Z,3.20
2022-08-26T13:47:30.294Z,3.33
2022-08-26T13:49:58.405Z,3.60
2022-08-26T13:52:31.052Z,3.95
2022-08-26T13:55:01.822Z,3.00
2022-08-26T13:57:30.533Z,2.70
2022-08-26T13:59:59.541Z,3.03
2022-08-26T14:02:28.325Z,2.85
2022-08-26T14:04:56.148Z,2.50
2022-08-26T14:07:24.419Z,2.90
2022-08-26T14:09:56.052Z,2.55
2022-08-26T14:12:23.723Z,2.33
2022-08-26T14:14:51.331Z,2.50
2022-08-26T14:17:24.746Z,3.08
2022-08-26T14:19:53.915Z,3.00
2022-08-26T14:22:22.638Z,2.95
2022-08-26T14:24:50.897Z,2.80
2022-08-26T14:27:18.577Z,2.83
2022-08-26T14:29:46.097Z,3.10
2022-08-26T14:32:23.724Z,3.15
2022-08-26T14:34:53.840Z,2.90
2022-08-26T14:37:21.744Z,2.63
2022-08-26T14:39:49.519Z,2.53
2022-08-26T14:42:31.635Z,2.85
2022-08-26T14:45:01.908Z,2.78
2022-08-26T14:47:32.518Z,2.58
2022-08-26T14:50:00.808Z,2.30
2022-08-26T14:52:28.347Z,2.30
2022-08-26T14:54:55.801Z,2.95
2022-08-26T14:57:23.245Z,2.20
2022-08-26T14:59:50.804Z,2.20
2022-08-26T15:02:33.529Z,2.33
2022-08-26T15:05:02.756Z,2.63
2022-08-26T15:07:31.187Z,2.50
2022-08-26T15:09:58.960Z,2.47
2022-08-26T15:12:28.819Z,2.40
2022-08-26T15:14:56.554Z,2.60
2022-08-26T15:17:24.377Z,2.60
2022-08-26T15:19:52.130Z,2.75
2022-08-26T15:22:20.027Z,2.60
2022-08-26T15:24:48.127Z,2.70
2022-08-26T15:27:21.426Z,2.33
2022-08-26T15:29:49.071Z,2.60
2022-08-26T15:32:16.750Z,2.60
2022-08-26T15:34:44.637Z,2.22
2022-08-26T15:37:12.433Z,2.38
2022-08-26T15:39:42.035Z,2.72
2022-08-26T15:42:09.865Z,2.63
2022-08-26T15:44:37.622Z,2.60
2022-08-26T15:47:05.881Z,2.50
2022-08-26T15:49:33.631Z,2.55
2022-08-26T15:52:04.225Z,2.22
2022-08-26T15:54:33.223Z,2.90
2022-08-26T15:57:03.632Z,2.40
2022-08-26T15:59:31.773Z,2.28
2022-08-26T16:02:00.729Z,2.45
2022-08-26T16:04:28.873Z,2.45
2022-08-26T16:06:56.805Z,2.28
2022-08-26T16:09:27.714Z,2.50
2022-08-26T16:11:56.794Z,2.60
2022-08-26T16:14:25.356Z,2.30
2022-08-26T16:16:54.068Z,2.42
2022-08-26T16:19:22.394Z,2.42
2022-08-26T16:21:51.960Z,2.60
2022-08-26T16:24:25.918Z,2.60
2022-08-26T16:26:55.389Z,2.42
2022-08-26T16:29:23.402Z,2.35
2022-08-26T16:31:53.450Z,2.55
2022-08-26T16:34:22.190Z,2.45
2022-08-26T16:36:50.320Z,2.60
2022-08-26T16:39:17.882Z,2.72
2022-08-26T16:41:45.505Z,2.83
2022-08-26T16:44:13.236Z,2.33
2022-08-26T16:46:41.355Z,2.88
2022-08-26T16:49:09.019Z,2.47
2022-08-26T16:51:38.329Z,2.65
2022-08-26T16:54:07.755Z,3.00
2022-08-26T16:56:35.795Z,2.70
2022-08-26T16:59:11.773Z,2.58
2022-08-26T17:01:39.514Z,2.55
2022-08-26T17:04:07.168Z,2.50
2022-08-26T17:06:34.922Z,2.67
2022-08-26T17:09:02.467Z,3.10
2022-08-26T17:11:30.235Z,3.08
2022-08-26T17:13:58.231Z,2.90
2022-08-26T17:16:27.014Z,2.75
2022-08-26T17:18:59.454Z,2.88
2022-08-26T17:21:28.120Z,2.92
2022-08-26T17:23:56.546Z,3.20
2022-08-26T17:26:24.143Z,3.30
2022-08-26T17:28:51.891Z,3.05
2022-08-26T17:31:20.046Z,3.25
2022-08-26T17:33:53.228Z,2.88
2022-08-26T17:36:23.236Z,2.75
2022-08-26T17:38:57.411Z,3.17
2022-08-26T17:41:27.070Z,3.20
2022-08-26T17:43:54.975Z,3.47
2022-08-26T17:46:23.427Z,3.38
2022-08-26T17:48:51.074Z,3.30
2022-08-26T17:51:20.035Z,3.60
2022-08-26T17:53:48.833Z,3.60
2022-08-26T17:56:19.213Z,3.70
2022-08-26T17:58:51.096Z,3.70
2022-08-26T18:01:20.806Z,3.38
2022-08-26T18:03:49.285Z,3.47
2022-08-26T18:06:17.104Z,3.28
2022-08-26T18:08:45.354Z,3.53
2022-08-26T18:11:16.368Z,3.88
2022-08-26T18:13:46.984Z,4.10
2022-08-26T18:16:18.113Z,3.45
2022-08-26T18:18:46.805Z,3.50
2022-08-26T18:21:18.701Z,4.03
2022-08-26T18:23:47.525Z,4.00
2022-08-26T18:26:27.421Z,3.90
2022-08-26T18:28:55.590Z,3.63
2022-08-26T18:31:23.779Z,3.85
2022-08-26T18:33:51.440Z,3.80
2022-08-26T18:36:22.985Z,3.70
2022-08-26T18:38:51.386Z,3.95
2022-08-26T18:41:20.995Z,4.07
2022-08-26T18:43:50.642Z,4.00
2022-08-26T18:46:19.566Z,4.38
2022-08-26T18:48:51.072Z,4.00
2022-08-26T18:51:27.508Z,4.00
2022-08-26T18:53:55.264Z,4.25
2022-08-26T18:56:23.138Z,4.15
2022-08-26T18:58:51.026Z,4.40
2022-08-26T19:01:23.261Z,4.28
2022-08-26T19:03:53.672Z,4.57
2022-08-26T19:06:23.819Z,4.30
2022-08-26T19:08:51.402Z,4.30
2022-08-26T19:11:31.166Z,4.10
2022-08-26T19:14:00.630Z,4.70
2022-08-26T19:16:29.107Z,4.00
2022-08-26T19:18:58.384Z,3.97
2022-08-26T19:21:26.094Z,4.22
2022-08-26T19:23:58.169Z,4.55
2022-08-26T19:26:27.670Z,4.28
2022-08-26T19:28:55.150Z,4.43
2022-08-26T19:31:23.141Z,4.32
2022-08-26T19:33:50.928Z,4.50
2022-08-26T19:36:25.696Z,4.82
2022-08-26T19:38:53.887Z,4.75
2022-08-26T19:41:36.701Z,4.60
2022-08-26T19:44:09.977Z,4.72
2022-08-26T19:49:07.242Z,4.72
2022-08-26T19:51:35.886Z,4.60
2022-08-26T19:54:03.566Z,4.68
2022-08-26T19:56:31.493Z,4.80
2022-08-26T19:58:59.113Z,4.50
2022-08-26T20:01:26.684Z,4.95
2022-08-26T20:06:26.857Z,5.00
2022-08-26T20:08:56.395Z,4.70
2022-08-26T20:11:24.394Z,4.75
2022-08-26T20:13:52.132Z,5.15
2022-08-26T20:16:19.752Z,4.90
2022-08-26T20:19:05.923Z,5.25
2022-08-26T20:21:38.307Z,5.55
2022-08-26T20:24:12.914Z,5.30
2022-08-26T20:26:42.815Z,5.47
2022-08-26T20:29:12.505Z,5.63
2022-08-26T20:31:41.074Z,5.68
2022-08-26T20:34:08.666Z,5.88
2022-08-26T20:36:39.406Z,5.55
2022-08-26T20:39:07.779Z,5.50
2022-08-26T20:41:36.122Z,6.10
2022-08-26T20:44:03.959Z,6.13
2022-08-26T20:46:32.097Z,5.93
2022-08-26T20:48:59.601Z,5.65
2022-08-26T20:51:28.367Z,5.90
2022-08-26T20:53:56.000Z,5.85
2022-08-26T20:56:24.950Z,6.22
2022-08-26T20:58:54.698Z,5.63
2022-08-26T21:01:28.616Z,5.93
2022-08-26T21:03:57.214Z,5.60
2022-08-26T21:06:25.479Z,6.68
2022-08-26T21:08:54.404Z,6.10
2022-08-26T21:11:23.147Z,6.75
2022-08-26T21:14:10.739Z,6.40
2022-08-26T21:16:44.298Z,6.50
2022-08-26T21:19:14.642Z,6.15
2022-08-26T21:21:42.680Z,6.82
2022-08-26T21:24:10.352Z,6.40
2022-08-26T21:26:38.334Z,7.10
2022-08-26T21:29:08.116Z,6.65
2022-08-26T21:31:36.639Z,6.18
2022-08-26T21:34:04.255Z,6.72
2022-08-26T21:36:32.219Z,7.10
2022-08-26T21:39:01.001Z,6.88
2022-08-26T21:41:29.118Z,6.82
2022-08-26T21:43:59.793Z,7.47
2022-08-26T21:46:29.875Z,7.30
2022-08-26T21:49:01.792Z,7.78
2022-08-26T21:51:32.423Z,7.53
2022-08-26T21:54:01.830Z,7.65
2022-08-26T21:56:31.793Z,7.82
2022-08-26T21:58:59.922Z,7.50
2022-08-26T22:01:32.064Z,7.43
2022-08-26T22:03:59.853Z,8.07
2022-08-26T22:06:29.888Z,7.88
2022-08-26T22:08:58.274Z,7.47
2022-08-26T22:11:27.646Z,7.47
2022-08-26T22:13:57.223Z,7.72
2022-08-26T22:16:28.988Z,8.48
2022-08-26T22:18:56.634Z,7.95
2022-08-26T22:21:28.226Z,8.02
2022-08-26T22:23:58.244Z,8.52
2022-08-26T22:26:32.364Z,8.50
2022-08-26T22:29:01.707Z,8.05
2022-08-26T22:31:37.555Z,8.40
2022-08-26T22:34:13.349Z,7.95
2022-08-26T22:36:43.930Z,7.28
2022-08-26T22:39:17.180Z,8.02
2022-08-26T22:41:45.502Z,7.97
2022-08-26T22:44:13.144Z,8.40
2022-08-26T22:46:42.186Z,8.35
2022-08-26T22:49:11.576Z,7.82
2022-08-26T22:51:39.507Z,8.07
2022-08-26T22:54:07.267Z,8.80
2022-08-26T22:56:35.162Z,8.13
2022-08-26T22:59:03.271Z,8.02
2022-08-26T23:01:31.572Z,8.35
2022-08-26T23:03:59.179Z,8.70
2022-08-26T23:06:27.015Z,8.18
2022-08-26T23:08:54.569Z,8.32
2022-08-26T23:11:22.284Z,8.15
2022-08-26T23:13:49.984Z,8.63
2022-08-26T23:16:18.062Z,8.32
2022-08-26T23:18:45.613Z,8.13
2022-08-26T23:21:13.404Z,8.50
2022-08-26T23:23:40.904Z,8.65
2022-08-26T23:26:08.936Z,8.60
2022-08-26T23:28:38.339Z,8.45
2022-08-26T23:31:07.061Z,8.38
2022-08-26T23:33:53.674Z,8.95
2022-08-26T23:36:22.883Z,8.70
2022-08-26T23:38:52.807Z,8.38
2022-08-26T23:41:22.998Z,8.52
2022-08-26T23:43:51.750Z,8.90
2022-08-26T23:46:20.535Z,8.98
2022-08-26T23:48:48.073Z,9.00
2022-08-26T23:51:34.608Z,9.20
2022-08-26T23:54:02.692Z,8.15
2022-08-26T23:56:30.429Z,8.50
2022-08-26T23:58:58.100Z,8.30
